Terminal Aerodrome Forecast
Issued by NWS Sterling, VA

Current Version | Previous Version | Graphics & Text | Print | Product List | Glossary On
Versions: 1 2 3 4 5 6 7 8 9 10 11 12 13 14 15 16 17 18 19 20 21 22 23 24
000
FTUS41 KLWX 040540
TAFDCA
TAF
KDCA 040540Z 0406/0506 VRB04KT P6SM FEW100
     FM041300 19006KT P6SM FEW090
     FM041700 18013KT P6SM SCT060
     FM050100 17008KT P6SM SCT050=

USA.gov is the U.S. government's official web portal to all federal, state and local government web resources and services.